Main page
METAR-TAF:

METAR-TAF

Airports :

Benbecula Airport

Benbecula, Scotland

latitude: 57-28N, longitude: 007-22W, elevation: 6 m

Current weather observation

The report was made 20 minutes ago, at 09:20 UTC
Wind 6 kt from the Northwest, varying between West/Southwest and North
Temperature 7°C
Humidity 57%
Pressure 1004 hPa
Visibility 10 km or more
Few clouds at a height of 4500 ft

METAR: EGPL 210920Z 31006KT 250V350 9999 FEW045 07/M01 Q1004

Time: 09:40 (09:40 UTC)

Forecast

The report was made 11 minutes ago, at 09:29 UTC
Forecast valid from 21 at 09 UTC to 21 at 17 UTC
Wind 9 kt from the Southeast
Visibility 10 km or more
Few clouds at a height of 3000 ft
Temporary
from 21 at 09 UTC to 21 at 15 UTC
Wind 18 kt from the South/Southeast with gusts up to 28 kt

TAF: EGPL 210929Z 2109/2117 14009KT 9999 FEW030 TEMPO 2109/2115 15018G28KT

Weather observations and forecasts of more than 4000 airports (METAR and TAF reports).

The available stations are represented by yellow and red dots on the map.

Hover mouse over dot to see the name of the station.

Then click to see weather observations and forecasts.

To change the map : click on the green buttons with a black cross to zoom in, on the green button with a dash to zoom out, or on the green arrows for adjacent maps.


METAR-TAF: